createdAt,value
2019-03-03T00:04:29.624Z,10.13
2019-03-03T00:10:34.435Z,8.80
2019-03-03T00:16:39.061Z,7.80
2019-03-03T00:22:43.882Z,6.97
2019-03-03T00:28:48.485Z,7.47
2019-03-03T00:34:53.306Z,6.87
2019-03-03T00:41:08.843Z,6.03
2019-03-03T00:47:31.364Z,6.10
2019-03-03T00:53:35.926Z,6.00
2019-03-03T00:59:57.985Z,7.13
2019-03-03T01:06:10.717Z,5.50
2019-03-03T01:12:21.196Z,5.77
2019-03-03T01:18:39.470Z,6.17
2019-03-03T01:24:59.388Z,6.93
2019-03-03T01:31:04.111Z,6.70
2019-03-03T01:37:08.954Z,6.50
2019-03-03T01:43:13.723Z,6.97
2019-03-03T01:49:18.605Z,6.37
2019-03-03T01:55:23.154Z,7.10
2019-03-03T02:01:28.131Z,6.40
2019-03-03T02:07:33.043Z,6.80
2019-03-03T02:13:37.744Z,7.00
2019-03-03T02:19:42.454Z,6.80
2019-03-03T02:25:47.137Z,6.33
2019-03-03T02:31:51.823Z,6.20
2019-03-03T02:37:56.513Z,6.70
2019-03-03T02:44:01.077Z,6.90
2019-03-03T02:50:09.785Z,7.23
2019-03-03T02:56:14.566Z,6.33
2019-03-03T03:02:20.913Z,6.23
2019-03-03T03:08:28.337Z,6.00
2019-03-03T03:14:51.058Z,5.47
2019-03-03T03:21:13.497Z,5.27
2019-03-03T03:27:28.868Z,5.30
2019-03-03T03:33:35.360Z,4.53
2019-03-03T03:39:45.956Z,4.00
2019-03-03T03:45:58.868Z,5.30
2019-03-03T03:52:07.875Z,5.03
2019-03-03T03:58:26.147Z,4.63
2019-03-03T04:04:35.619Z,5.43
2019-03-03T04:10:41.799Z,4.30
2019-03-03T04:17:06.487Z,4.03
2019-03-03T04:23:12.694Z,4.40
2019-03-03T04:29:31.175Z,4.30
2019-03-03T04:35:37.736Z,4.00
2019-03-03T04:41:54.111Z,3.87
2019-03-03T04:48:07.227Z,3.47
2019-03-03T04:54:16.484Z,5.60
2019-03-03T05:00:38.605Z,4.20
2019-03-03T05:06:47.860Z,4.40
2019-03-03T05:12:57.125Z,4.17
2019-03-03T05:19:03.542Z,5.17
2019-03-03T05:25:08.813Z,4.70
2019-03-03T05:31:13.386Z,5.10
2019-03-03T05:37:18.061Z,5.20
2019-03-03T05:43:22.628Z,5.10
2019-03-03T05:49:27.260Z,5.30
2019-03-03T05:55:32.188Z,5.53
2019-03-03T06:01:36.900Z,4.57
2019-03-03T06:07:41.523Z,6.07
2019-03-03T06:13:46.176Z,5.60
2019-03-03T06:19:50.840Z,5.60
2019-03-03T06:25:55.413Z,5.30
2019-03-03T06:32:01.019Z,4.90
2019-03-03T06:38:05.972Z,4.63
2019-03-03T06:44:10.821Z,5.17
2019-03-03T06:50:15.436Z,5.40
2019-03-03T06:56:19.993Z,4.00
2019-03-03T07:02:24.553Z,4.47
2019-03-03T07:08:29.133Z,4.53
2019-03-03T07:14:33.903Z,4.20
2019-03-03T07:20:38.505Z,4.13
2019-03-03T07:26:43.114Z,4.60
2019-03-03T07:33:02.670Z,4.30
2019-03-03T07:39:16.690Z,3.93
2019-03-03T07:45:21.511Z,7.50
2019-03-03T07:51:26.298Z,4.73
2019-03-03T07:57:31.518Z,4.40
2019-03-03T08:03:36.147Z,4.97
2019-03-03T08:09:40.836Z,6.10
2019-03-03T08:15:45.408Z,6.50
2019-03-03T08:21:50.036Z,4.30
2019-03-03T08:27:54.729Z,5.80
2019-03-03T08:34:00.663Z,4.20
2019-03-03T08:40:08.052Z,5.43
2019-03-03T08:46:17.088Z,3.10
2019-03-03T08:52:29.213Z,3.93
2019-03-03T08:58:53.262Z,4.27
2019-03-03T09:05:17.697Z,3.80
2019-03-03T09:11:35.641Z,3.97
2019-03-03T09:17:48.946Z,4.43
2019-03-03T09:24:13.861Z,3.63
2019-03-03T09:30:36.449Z,3.50
2019-03-03T09:36:42.718Z,3.63
2019-03-03T09:43:04.321Z,4.10
2019-03-03T09:49:19.552Z,3.13
2019-03-03T09:55:26.019Z,4.40
2019-03-03T10:01:48.733Z,4.23
2019-03-03T10:07:55.077Z,3.33
2019-03-03T10:14:19.921Z,3.87
2019-03-03T10:20:29.148Z,3.57
2019-03-03T10:26:35.072Z,4.00
2019-03-03T10:32:58.230Z,4.20
2019-03-03T10:39:07.819Z,3.50
2019-03-03T10:45:14.097Z,3.70
2019-03-03T10:51:22.832Z,4.27
2019-03-03T10:57:42.305Z,5.07
2019-03-03T11:03:55.707Z,3.67
2019-03-03T11:10:07.947Z,4.27
2019-03-03T11:16:14.326Z,3.67
2019-03-03T11:22:26.638Z,4.10
2019-03-03T11:28:48.178Z,4.00
2019-03-03T11:34:52.578Z,3.50
2019-03-03T11:40:58.992Z,4.13
2019-03-03T11:47:05.453Z,3.83
2019-03-03T11:53:20.627Z,4.00
2019-03-03T11:59:28.137Z,4.63
2019-03-03T12:05:40.641Z,4.63
2019-03-03T12:11:56.006Z,5.17
2019-03-03T12:18:20.674Z,3.47
2019-03-03T12:24:26.909Z,4.97
2019-03-03T12:30:43.771Z,4.83
2019-03-03T12:37:08.540Z,3.63
2019-03-03T12:43:14.742Z,4.87
2019-03-03T12:49:33.070Z,4.60
2019-03-03T12:55:39.319Z,4.00
2019-03-03T13:01:43.653Z,4.30
2019-03-03T13:07:50.391Z,4.83
2019-03-03T13:13:57.451Z,4.77
2019-03-03T13:20:13.038Z,4.57
2019-03-03T13:26:37.640Z,4.43
2019-03-03T13:32:43.930Z,5.00
2019-03-03T13:39:06.106Z,5.27
2019-03-03T13:45:13.168Z,4.67
2019-03-03T13:51:17.946Z,5.53
2019-03-03T13:57:22.670Z,4.50
2019-03-03T14:03:28.374Z,4.40
2019-03-03T14:09:33.270Z,4.07
2019-03-03T14:15:37.975Z,6.33
2019-03-03T14:21:42.770Z,4.70
2019-03-03T14:27:47.465Z,3.60
2019-03-03T14:33:53.193Z,4.57
2019-03-03T14:39:57.954Z,4.37
2019-03-03T14:46:02.860Z,4.10
2019-03-03T14:52:07.554Z,4.60
2019-03-03T14:58:12.183Z,3.70
2019-03-03T15:04:16.811Z,4.33
2019-03-03T15:10:21.453Z,2.83
2019-03-03T15:16:26.017Z,4.37
2019-03-03T15:22:31.315Z,3.63
2019-03-03T15:28:36.128Z,3.07
2019-03-03T15:34:40.764Z,3.47
2019-03-03T15:40:45.413Z,4.33
2019-03-03T15:46:50.152Z,3.00
2019-03-03T15:52:54.869Z,3.43
2019-03-03T15:59:01.372Z,2.50
2019-03-03T16:05:09.537Z,3.57
2019-03-03T16:11:14.153Z,2.83
2019-03-03T16:17:18.729Z,2.73
2019-03-03T16:23:23.599Z,2.73
2019-03-03T16:29:28.328Z,2.80
2019-03-03T16:35:33.131Z,3.70
2019-03-03T16:41:37.862Z,2.90
2019-03-03T16:47:42.492Z,3.53
2019-03-03T16:53:47.128Z,3.00
2019-03-03T16:59:51.694Z,3.40
2019-03-03T17:05:56.263Z,3.80
2019-03-03T17:12:01.624Z,5.23
2019-03-03T17:18:06.537Z,5.07
2019-03-03T17:24:11.107Z,4.40
2019-03-03T17:30:19.660Z,4.10
2019-03-03T17:36:24.227Z,4.10
2019-03-03T17:42:29.160Z,3.73
2019-03-03T17:48:33.707Z,4.07
2019-03-03T17:54:38.373Z,4.17
2019-03-03T18:00:44.636Z,3.17
2019-03-03T18:06:50.140Z,4.27
2019-03-03T18:12:54.843Z,4.17
2019-03-03T18:19:00.138Z,4.97
2019-03-03T18:25:06.256Z,4.43
2019-03-03T18:31:10.877Z,3.80
2019-03-03T18:37:15.518Z,4.43
2019-03-03T18:43:20.076Z,4.60
2019-03-03T18:49:24.753Z,5.33
2019-03-03T18:55:30.028Z,5.33
2019-03-03T19:01:34.727Z,5.80
2019-03-03T19:07:39.504Z,4.50
2019-03-03T19:13:44.090Z,4.87
2019-03-03T19:19:48.842Z,5.00
2019-03-03T19:25:53.446Z,4.50
2019-03-03T19:31:58.098Z,6.13
2019-03-03T19:38:02.909Z,7.83
2019-03-03T19:44:07.879Z,6.63
2019-03-03T19:50:14.678Z,6.57
2019-03-03T19:56:19.590Z,8.00
2019-03-03T20:02:24.288Z,5.77
2019-03-03T20:08:29.466Z,7.30
2019-03-03T20:14:34.026Z,6.07
2019-03-03T20:20:39.614Z,4.67
2019-03-03T20:26:44.306Z,6.27
2019-03-03T20:32:49.110Z,5.50
2019-03-03T20:38:53.697Z,5.60
2019-03-03T20:44:58.383Z,4.70
2019-03-03T20:51:03.464Z,5.30
2019-03-03T20:57:08.200Z,4.80
2019-03-03T21:03:13.050Z,4.83
2019-03-03T21:09:17.883Z,5.70
2019-03-03T21:15:22.583Z,4.40
2019-03-03T21:21:27.171Z,4.53
2019-03-03T21:27:31.981Z,4.47
2019-03-03T21:33:36.615Z,6.20
2019-03-03T21:39:41.163Z,4.90
2019-03-03T21:45:46.092Z,5.47
2019-03-03T21:51:50.718Z,5.07
2019-03-03T21:57:55.305Z,4.90
2019-03-03T22:04:00.222Z,4.40
2019-03-03T22:10:07.142Z,5.47
2019-03-03T22:16:11.703Z,5.17
2019-03-03T22:22:16.264Z,5.17
2019-03-03T22:28:20.816Z,4.80
2019-03-03T22:34:25.538Z,3.23
2019-03-03T22:40:30.880Z,4.60
2019-03-03T22:46:35.623Z,4.40
2019-03-03T22:52:40.616Z,3.57
2019-03-03T22:58:45.161Z,4.17
2019-03-03T23:05:03.646Z,3.87
2019-03-03T23:11:50.844Z,3.60
2019-03-03T23:18:39.599Z,4.20
2019-03-03T23:25:07.088Z,4.50
2019-03-03T23:31:11.720Z,3.87
2019-03-03T23:37:16.355Z,4.60
2019-03-03T23:43:21.081Z,4.10
2019-03-03T23:49:25.633Z,3.50
2019-03-03T23:55:30.678Z,4.40
